createdAt,value
2023-05-21T00:02:39.982Z,17.00
2023-05-21T00:07:42.844Z,14.40
2023-05-21T00:12:45.480Z,11.00
2023-05-21T00:17:48.203Z,19.10
2023-05-21T00:22:50.941Z,20.20
2023-05-21T00:27:54.815Z,17.50
2023-05-21T00:32:58.766Z,16.00
2023-05-21T00:38:01.929Z,13.80
2023-05-21T00:43:04.582Z,12.10
2023-05-21T00:48:08.380Z,15.90
2023-05-21T00:53:11.451Z,21.50
2023-05-21T00:58:14.217Z,17.60
2023-05-21T01:03:17.170Z,15.80
2023-05-21T01:08:21.726Z,16.90
2023-05-21T01:13:26.185Z,14.70
2023-05-21T01:18:29.839Z,14.80
2023-05-21T01:23:33.431Z,14.50
2023-05-21T01:28:36.768Z,16.30
2023-05-21T01:33:47.404Z,15.60
2023-05-21T01:39:02.105Z,16.60
2023-05-21T01:44:08.765Z,15.50
2023-05-21T01:49:11.639Z,13.10
2023-05-21T01:54:14.523Z,17.10
2023-05-21T01:59:17.303Z,15.90
2023-05-21T02:04:19.937Z,17.70
2023-05-21T02:09:22.688Z,13.20
2023-05-21T02:14:25.395Z,11.90
2023-05-21T02:19:28.017Z,14.00
2023-05-21T02:24:31.329Z,12.10
2023-05-21T02:29:33.932Z,15.10
2023-05-21T02:34:37.308Z,14.50
2023-05-21T02:39:39.956Z,16.50
2023-05-21T02:44:42.501Z,15.00
2023-05-21T02:49:45.617Z,13.70
2023-05-21T02:54:48.260Z,13.40
2023-05-21T02:59:51.264Z,10.20
2023-05-21T03:04:54.162Z,13.60
2023-05-21T03:09:56.856Z,15.10
2023-05-21T03:14:59.742Z,11.80
2023-05-21T03:20:05.124Z,12.90
2023-05-21T03:25:09.220Z,12.80
2023-05-21T03:30:12.348Z,11.90
2023-05-21T03:35:15.152Z,12.20
2023-05-21T03:40:17.759Z,10.50
2023-05-21T03:45:20.436Z,10.50
2023-05-21T03:50:23.085Z,9.60
2023-05-21T03:55:25.865Z,10.70
2023-05-21T04:00:28.499Z,9.00
2023-05-21T04:05:31.499Z,11.70
2023-05-21T04:10:34.674Z,13.30
2023-05-21T04:15:38.900Z,10.40
2023-05-21T04:20:41.993Z,9.90
2023-05-21T04:25:44.606Z,12.50
2023-05-21T04:30:47.686Z,10.30
2023-05-21T04:35:51.765Z,8.80
2023-05-21T04:40:55.649Z,11.70
2023-05-21T04:45:58.209Z,7.80
2023-05-21T04:51:00.804Z,10.30
2023-05-21T04:56:03.974Z,10.10
2023-05-21T05:01:08.966Z,8.60
2023-05-21T05:06:11.924Z,10.80
2023-05-21T05:11:14.690Z,6.10
2023-05-21T05:16:19.348Z,6.80
2023-05-21T05:21:23.366Z,7.30
2023-05-21T05:26:26.424Z,9.70
2023-05-21T05:31:29.219Z,8.70
2023-05-21T05:36:32.244Z,8.10
2023-05-21T05:41:34.895Z,9.30
2023-05-21T05:46:37.723Z,5.40
2023-05-21T05:51:41.039Z,8.90
2023-05-21T05:56:43.653Z,5.20
2023-05-21T06:01:46.384Z,8.40
2023-05-21T06:06:49.003Z,11.40
2023-05-21T06:11:51.876Z,6.00
2023-05-21T06:16:54.469Z,8.70
2023-05-21T06:21:57.121Z,4.40
2023-05-21T06:26:59.991Z,8.90
2023-05-21T06:32:03.524Z,8.50
2023-05-21T06:37:06.142Z,6.50
2023-05-21T06:42:08.783Z,8.20
2023-05-21T06:47:11.484Z,7.30
2023-05-21T06:52:14.101Z,7.10
2023-05-21T06:57:16.684Z,3.80
2023-05-21T07:02:19.427Z,5.10
2023-05-21T07:07:22.240Z,6.70
2023-05-21T07:12:24.961Z,5.90
2023-05-21T07:17:27.598Z,6.00
2023-05-21T07:22:30.279Z,4.70
2023-05-21T07:27:32.812Z,4.60
2023-05-21T07:32:35.547Z,5.90
2023-05-21T07:37:38.564Z,3.90
2023-05-21T07:42:42.215Z,4.40
2023-05-21T07:47:46.567Z,4.90
2023-05-21T07:52:49.309Z,4.20
2023-05-21T07:57:52.506Z,4.20
2023-05-21T08:02:55.237Z,4.60
2023-05-21T08:07:57.962Z,4.40
2023-05-21T08:13:00.764Z,3.10
2023-05-21T08:18:04.332Z,3.50
2023-05-21T08:23:07.061Z,4.40
2023-05-21T08:28:09.658Z,3.60
2023-05-21T08:33:12.902Z,3.60
2023-05-21T08:38:17.042Z,4.90
2023-05-21T08:43:19.950Z,3.20
2023-05-21T08:48:24.356Z,3.20
2023-05-21T08:53:29.665Z,3.40
2023-05-21T08:58:33.691Z,4.20
2023-05-21T09:03:43.224Z,2.80
2023-05-21T09:08:54.136Z,2.70
2023-05-21T09:14:00.068Z,3.60
2023-05-21T09:19:04.617Z,4.20
2023-05-21T09:24:10.586Z,3.50
2023-05-21T09:29:13.647Z,2.90
2023-05-21T09:34:16.429Z,5.70
2023-05-21T09:39:31.677Z,2.50
2023-05-21T09:44:35.050Z,2.40
2023-05-21T09:49:37.758Z,2.90
2023-05-21T09:54:40.677Z,2.80
2023-05-21T09:59:43.340Z,4.40
2023-05-21T10:04:49.459Z,2.00
2023-05-21T10:09:58.209Z,3.00
2023-05-21T10:15:04.161Z,3.90
2023-05-21T10:20:10.667Z,4.20
2023-05-21T10:25:14.191Z,4.10
2023-05-21T10:30:18.168Z,3.30
2023-05-21T10:35:21.007Z,2.00
2023-05-21T10:40:23.615Z,6.10
2023-05-21T10:45:53.473Z,2.40
2023-05-21T10:51:26.635Z,2.90
2023-05-21T10:56:35.467Z,2.70
2023-05-21T11:01:40.483Z,5.30
2023-05-21T11:06:49.527Z,3.10
2023-05-21T11:11:54.062Z,3.90
2023-05-21T11:16:57.111Z,2.40
2023-05-21T11:21:59.857Z,3.80
2023-05-21T11:27:04.373Z,4.50
2023-05-21T11:32:09.259Z,5.90
2023-05-21T11:37:23.321Z,3.30
2023-05-21T11:42:39.010Z,5.40
2023-05-21T11:47:41.838Z,5.00
2023-05-21T11:52:45.221Z,2.30
2023-05-21T11:57:48.697Z,7.00
2023-05-21T12:02:52.657Z,3.70
2023-05-21T12:07:56.716Z,6.50
2023-05-21T12:12:59.459Z,2.50
2023-05-21T12:18:02.905Z,2.20
2023-05-21T12:23:05.878Z,3.30
2023-05-21T12:28:08.790Z,5.20
2023-05-21T12:33:12.138Z,3.80
2023-05-21T12:38:14.802Z,3.00
2023-05-21T12:43:17.420Z,4.10
2023-05-21T12:48:19.994Z,4.10
2023-05-21T12:53:22.590Z,6.50
2023-05-21T12:58:25.783Z,3.70
2023-05-21T13:03:28.460Z,3.70
2023-05-21T13:08:31.166Z,3.30
2023-05-21T13:13:33.778Z,4.80
2023-05-21T13:18:36.536Z,3.90
2023-05-21T13:23:39.145Z,2.20
2023-05-21T13:28:42.807Z,3.30
2023-05-21T13:33:45.626Z,8.90
2023-05-21T13:38:48.241Z,5.40
2023-05-21T13:43:50.842Z,3.20
2023-05-21T13:48:53.486Z,4.20
2023-05-21T13:59:01.533Z,4.10
2023-05-21T14:04:05.537Z,3.30
2023-05-21T14:09:08.707Z,2.60
2023-05-21T14:14:14.064Z,3.00
2023-05-21T14:19:16.941Z,4.50
2023-05-21T14:24:19.823Z,5.20
2023-05-21T14:29:22.514Z,2.40
2023-05-21T14:34:25.228Z,7.40
2023-05-21T14:39:27.810Z,2.30
2023-05-21T14:44:30.830Z,2.40
2023-05-21T14:49:33.505Z,1.80
2023-05-21T14:54:37.452Z,1.80
2023-05-21T14:59:40.054Z,4.30
2023-05-21T15:04:42.640Z,6.90
2023-05-21T15:09:45.293Z,3.00
2023-05-21T15:14:47.893Z,3.60
2023-05-21T15:19:51.148Z,4.60
2023-05-21T15:24:53.773Z,3.20
2023-05-21T15:29:56.429Z,3.80
2023-05-21T15:34:59.168Z,2.60
2023-05-21T15:40:02.128Z,2.50
2023-05-21T15:45:05.297Z,4.60
2023-05-21T15:50:09.545Z,2.60
2023-05-21T15:55:13.858Z,3.50
2023-05-21T16:00:16.537Z,5.40
2023-05-21T16:05:19.490Z,5.20
2023-05-21T16:10:22.725Z,2.50
2023-05-21T16:15:25.494Z,3.50
2023-05-21T16:20:30.118Z,1.70
2023-05-21T16:25:34.283Z,2.30
2023-05-21T16:30:36.964Z,2.90
2023-05-21T16:35:39.595Z,1.90
2023-05-21T16:40:42.247Z,2.90
2023-05-21T16:45:46.477Z,3.00
2023-05-21T16:50:49.135Z,3.30
2023-05-21T16:55:51.758Z,9.30
2023-05-21T17:00:54.386Z,5.50
2023-05-21T17:05:57.097Z,5.40
2023-05-21T17:10:59.728Z,3.50
2023-05-21T17:16:02.333Z,4.60
2023-05-21T17:21:05.076Z,5.10
2023-05-21T17:26:09.505Z,4.50
2023-05-21T17:31:12.133Z,3.00
2023-05-21T17:36:14.763Z,4.70
2023-05-21T17:41:19.004Z,4.30
2023-05-21T17:46:21.571Z,3.90
2023-05-21T17:51:24.951Z,3.70
2023-05-21T17:56:27.650Z,7.40
2023-05-21T18:01:30.375Z,5.20
2023-05-21T18:06:32.992Z,6.90
2023-05-21T18:11:35.595Z,5.70
2023-05-21T18:16:38.283Z,4.90
2023-05-21T18:21:40.949Z,4.90
2023-05-21T18:26:43.695Z,6.80
2023-05-21T18:31:46.471Z,3.80
2023-05-21T18:36:49.060Z,8.10
2023-05-21T18:42:01.602Z,7.40
2023-05-21T18:47:08.268Z,4.60
2023-05-21T18:52:10.890Z,4.90
2023-05-21T18:57:13.648Z,6.70
2023-05-21T19:02:16.470Z,4.00
2023-05-21T19:07:19.466Z,8.40
2023-05-21T19:12:23.161Z,4.00
2023-05-21T19:17:25.863Z,5.10
2023-05-21T19:22:28.935Z,6.90
2023-05-21T19:27:31.796Z,6.00
2023-05-21T19:32:34.808Z,4.80
2023-05-21T19:37:37.397Z,6.40
2023-05-21T19:42:40.059Z,6.90
2023-05-21T19:47:43.297Z,7.80
2023-05-21T19:52:46.379Z,5.20
2023-05-21T19:57:49.240Z,5.70
2023-05-21T20:02:53.004Z,5.50
2023-05-21T20:07:56.037Z,4.20
2023-05-21T20:12:58.723Z,8.20
2023-05-21T20:18:01.482Z,7.60
2023-05-21T20:23:04.158Z,8.40
2023-05-21T20:28:08.281Z,7.40
2023-05-21T20:33:11.057Z,6.20
2023-05-21T20:38:15.972Z,5.70
2023-05-21T20:43:19.971Z,15.10
2023-05-21T20:48:24.995Z,7.00
2023-05-21T20:53:27.866Z,4.70
2023-05-21T20:58:31.539Z,5.00
2023-05-21T21:03:34.758Z,5.90
2023-05-21T21:08:40.287Z,6.10
2023-05-21T21:13:43.054Z,7.50
2023-05-21T21:18:47.018Z,30.40
2023-05-21T21:23:49.877Z,10.30
2023-05-21T21:28:52.876Z,8.90
2023-05-21T21:33:55.483Z,5.90
2023-05-21T21:38:58.162Z,7.00
2023-05-21T21:44:00.741Z,5.70
2023-05-21T21:49:03.424Z,8.10
2023-05-21T21:54:06.319Z,6.40
2023-05-21T21:59:08.906Z,8.40
2023-05-21T22:04:11.933Z,8.30
2023-05-21T22:09:14.858Z,8.30
2023-05-21T22:14:18.321Z,7.40
2023-05-21T22:19:22.031Z,7.20
2023-05-21T22:29:33.268Z,7.40
2023-05-21T22:34:35.892Z,10.40
2023-05-21T22:39:38.468Z,6.50
2023-05-21T22:44:41.019Z,7.30
2023-05-21T22:49:43.590Z,7.60
2023-05-21T22:54:46.187Z,6.80
2023-05-21T22:59:48.778Z,5.50
2023-05-21T23:04:51.368Z,6.40
2023-05-21T23:09:54.046Z,6.40
2023-05-21T23:14:56.728Z,11.70
2023-05-21T23:19:59.397Z,8.00
2023-05-21T23:25:02.593Z,10.10
2023-05-21T23:30:06.029Z,7.00
2023-05-21T23:35:10.005Z,13.30
2023-05-21T23:40:12.855Z,12.00
2023-05-21T23:45:17.193Z,11.10
2023-05-21T23:50:19.845Z,8.30
2023-05-21T23:55:22.575Z,8.50
